createdAt,value
2018-05-31T00:00:11.463Z,60.30
2018-05-31T00:00:43.194Z,60.30
2018-05-31T00:01:15.004Z,60.30
2018-05-31T00:01:46.913Z,60.30
2018-05-31T00:02:19.619Z,60.20
2018-05-31T00:02:51.585Z,60.20
2018-05-31T00:03:23.530Z,60.20
2018-05-31T00:03:55.471Z,60.20
2018-05-31T00:04:27.219Z,60.10
2018-05-31T00:04:59.154Z,60.20
2018-05-31T00:05:30.906Z,60.00
2018-05-31T00:06:02.860Z,60.00
2018-05-31T00:06:34.806Z,60.10
2018-05-31T00:07:06.741Z,60.00
2018-05-31T00:07:38.673Z,60.00
2018-05-31T00:08:10.615Z,60.00
2018-05-31T00:08:43.314Z,60.00
2018-05-31T00:09:15.270Z,60.00
2018-05-31T00:09:47.047Z,60.00
2018-05-31T00:10:18.797Z,60.00
2018-05-31T00:10:50.714Z,60.00
2018-05-31T00:11:22.543Z,59.90
2018-05-31T00:11:55.219Z,59.90
2018-05-31T00:12:26.993Z,59.90
2018-05-31T00:12:58.942Z,59.80
2018-05-31T00:13:30.685Z,59.80
2018-05-31T00:14:02.611Z,59.80
2018-05-31T00:14:34.342Z,59.90
2018-05-31T00:15:06.287Z,59.90
2018-05-31T00:15:38.239Z,59.90
2018-05-31T00:16:10.174Z,59.90
2018-05-31T00:16:42.131Z,59.80
2018-05-31T00:17:14.069Z,59.90
2018-05-31T00:17:46.014Z,59.80
2018-05-31T00:18:17.966Z,59.80
2018-05-31T00:18:50.040Z,59.80
2018-05-31T00:19:21.766Z,59.80
2018-05-31T00:19:54.470Z,59.90
2018-05-31T00:20:26.413Z,59.90
2018-05-31T00:20:58.370Z,59.80
2018-05-31T00:21:30.382Z,59.80
2018-05-31T00:22:02.126Z,59.70
2018-05-31T00:22:34.054Z,59.70
2018-05-31T00:23:06.562Z,59.70
2018-05-31T00:23:38.530Z,59.70
2018-05-31T00:24:10.472Z,59.70
2018-05-31T00:24:42.412Z,59.70
2018-05-31T00:25:14.362Z,59.60
2018-05-31T00:25:46.573Z,59.60
2018-05-31T00:26:19.273Z,59.10
2018-05-31T00:26:51.246Z,59.50
2018-05-31T00:27:23.161Z,59.50
2018-05-31T00:27:55.138Z,59.50
2018-05-31T00:28:27.089Z,59.50
2018-05-31T00:28:59.022Z,59.50
2018-05-31T00:29:30.962Z,59.50
2018-05-31T00:30:02.931Z,59.50
2018-05-31T00:30:34.662Z,59.50
2018-05-31T00:31:06.608Z,59.40
2018-05-31T00:31:38.341Z,59.40
2018-05-31T00:32:10.282Z,59.40
2018-05-31T00:32:42.251Z,59.40
2018-05-31T00:33:14.201Z,60.00
2018-05-31T00:34:02.684Z,59.20
2018-05-31T00:34:34.655Z,59.70
2018-05-31T00:35:06.592Z,59.20
2018-05-31T00:35:38.527Z,59.20
2018-05-31T00:36:10.266Z,59.20
2018-05-31T00:36:42.206Z,59.30
2018-05-31T00:37:14.173Z,59.20
2018-05-31T00:37:45.894Z,59.20
2018-05-31T00:38:17.851Z,59.20
2018-05-31T00:38:49.813Z,59.20
2018-05-31T00:39:21.752Z,59.20
2018-05-31T00:39:53.692Z,59.20
2018-05-31T00:40:25.438Z,59.20
2018-05-31T00:40:57.382Z,59.20
2018-05-31T00:41:29.353Z,59.10
2018-05-31T00:42:01.286Z,59.10
2018-05-31T00:42:33.043Z,59.10
2018-05-31T00:43:04.988Z,59.00
2018-05-31T00:43:36.929Z,59.00
2018-05-31T00:44:08.873Z,59.00
2018-05-31T00:44:40.825Z,59.00
2018-05-31T00:45:12.551Z,59.00
2018-05-31T00:45:44.524Z,59.00
2018-05-31T00:46:16.470Z,59.00
2018-05-31T00:46:48.412Z,59.00
2018-05-31T00:47:20.387Z,59.00
2018-05-31T00:47:52.118Z,59.00
2018-05-31T00:48:24.076Z,59.00
2018-05-31T00:48:56.006Z,59.00
2018-05-31T00:49:27.943Z,59.00
2018-05-31T00:49:59.988Z,59.00
2018-05-31T00:50:31.914Z,59.00
2018-05-31T00:51:03.857Z,59.00
2018-05-31T00:51:36.597Z,59.00
2018-05-31T00:52:08.394Z,58.90
2018-05-31T00:52:41.066Z,59.00
2018-05-31T00:53:13.021Z,58.90
2018-05-31T00:53:44.950Z,59.00
2018-05-31T00:54:17.010Z,59.00
2018-05-31T00:54:49.695Z,59.00
2018-05-31T00:55:21.636Z,59.00
2018-05-31T00:55:53.588Z,58.90
2018-05-31T00:56:25.546Z,59.10
2018-05-31T00:56:57.301Z,59.00
2018-05-31T00:57:29.282Z,59.00
2018-05-31T00:58:02.004Z,58.80
2018-05-31T00:58:33.935Z,58.80
2018-05-31T00:59:05.873Z,58.90
2018-05-31T00:59:37.830Z,59.00
2018-05-31T01:00:09.765Z,59.00
2018-05-31T01:00:41.500Z,59.00
2018-05-31T01:01:13.247Z,59.10
2018-05-31T01:01:45.968Z,59.20
2018-05-31T01:02:17.686Z,59.10
2018-05-31T01:02:49.641Z,59.20
2018-05-31T01:03:21.842Z,59.30
2018-05-31T01:03:54.548Z,59.80
2018-05-31T01:04:26.485Z,59.20
2018-05-31T01:04:58.453Z,59.10
2018-05-31T01:05:31.144Z,59.10
2018-05-31T01:06:03.078Z,59.10
2018-05-31T01:06:35.015Z,59.10
2018-05-31T01:07:06.976Z,59.10
2018-05-31T01:07:38.895Z,59.10
2018-05-31T01:08:10.825Z,59.00
2018-05-31T01:08:43.548Z,59.00
2018-05-31T01:09:15.334Z,59.00
2018-05-31T01:09:47.841Z,59.70
2018-05-31T01:10:19.774Z,59.00
2018-05-31T01:10:51.737Z,59.00
2018-05-31T01:11:23.694Z,58.90
2018-05-31T01:11:55.728Z,59.00
2018-05-31T01:12:27.637Z,59.00
2018-05-31T01:12:59.563Z,59.00
2018-05-31T01:13:31.508Z,59.00
2018-05-31T01:14:03.470Z,59.00
2018-05-31T01:14:35.227Z,58.90
2018-05-31T01:15:07.189Z,58.90
2018-05-31T01:15:39.123Z,58.90
2018-05-31T01:16:10.859Z,58.90
2018-05-31T01:16:42.598Z,58.90
2018-05-31T01:17:14.551Z,58.90
2018-05-31T01:17:46.519Z,58.90
2018-05-31T01:18:18.458Z,58.80
2018-05-31T01:18:50.430Z,59.40
2018-05-31T01:19:23.139Z,58.90
2018-05-31T01:19:55.083Z,58.90
2018-05-31T01:20:27.039Z,58.90
2018-05-31T01:20:58.969Z,58.80
2018-05-31T01:21:30.738Z,58.90
2018-05-31T01:22:02.674Z,58.80
2018-05-31T01:22:34.624Z,58.90
2018-05-31T01:23:06.553Z,59.00
2018-05-31T01:23:38.487Z,59.00
2018-05-31T01:24:11.210Z,59.10
2018-05-31T01:24:43.145Z,59.10
2018-05-31T01:25:15.095Z,59.10
2018-05-31T01:25:47.039Z,59.10
2018-05-31T01:26:18.965Z,59.10
2018-05-31T01:26:50.915Z,59.10
2018-05-31T01:27:22.875Z,59.10
2018-05-31T01:27:54.844Z,59.00
2018-05-31T01:28:26.825Z,59.10
2018-05-31T01:28:58.820Z,59.00
2018-05-31T01:29:31.499Z,59.00
2018-05-31T01:30:03.255Z,59.00
2018-05-31T01:30:35.193Z,59.00
2018-05-31T01:31:07.132Z,59.00
2018-05-31T01:31:39.132Z,58.90
2018-05-31T01:32:10.843Z,58.90
2018-05-31T01:32:42.797Z,58.90
2018-05-31T01:33:14.555Z,58.90
2018-05-31T01:33:46.534Z,58.80
2018-05-31T01:34:18.458Z,58.80
2018-05-31T01:34:50.662Z,58.90
2018-05-31T01:35:22.597Z,58.70
2018-05-31T01:35:55.302Z,58.80
2018-05-31T01:36:27.265Z,58.80
2018-05-31T01:36:59.209Z,58.80
2018-05-31T01:37:31.174Z,58.80
2018-05-31T01:38:03.119Z,58.80
2018-05-31T01:38:34.872Z,58.80
2018-05-31T01:39:06.819Z,58.80
2018-05-31T01:39:38.794Z,59.00
2018-05-31T01:40:10.899Z,58.80
2018-05-31T01:40:42.887Z,58.90
2018-05-31T01:41:14.841Z,58.90
2018-05-31T01:41:46.808Z,59.00
2018-05-31T01:42:18.750Z,59.00
2018-05-31T01:42:51.482Z,59.00
2018-05-31T01:43:23.279Z,59.00
2018-05-31T01:43:55.804Z,59.00
2018-05-31T01:44:27.762Z,58.90
2018-05-31T01:44:59.517Z,59.00
2018-05-31T01:45:32.386Z,59.10
2018-05-31T01:46:04.375Z,59.00
2018-05-31T01:46:36.132Z,59.10
2018-05-31T01:47:08.094Z,59.10
2018-05-31T01:47:40.073Z,59.10
2018-05-31T01:48:12.024Z,59.10
2018-05-31T01:48:43.767Z,59.10
2018-05-31T01:49:15.733Z,59.70
2018-05-31T01:49:48.447Z,59.10
2018-05-31T01:50:20.417Z,59.00
2018-05-31T01:50:52.598Z,59.10
2018-05-31T01:51:25.336Z,59.70
2018-05-31T01:51:57.280Z,59.10
2018-05-31T01:52:29.250Z,59.00
2018-05-31T01:53:01.782Z,59.10
2018-05-31T01:53:33.780Z,59.00
2018-05-31T01:54:05.511Z,59.10
2018-05-31T01:54:38.075Z,59.50
2018-05-31T01:55:10.040Z,59.10
2018-05-31T01:55:42.751Z,59.20
2018-05-31T01:56:14.710Z,59.10
2018-05-31T01:56:46.660Z,59.00
2018-05-31T01:57:18.612Z,59.10
2018-05-31T01:57:50.563Z,59.10
2018-05-31T01:58:22.318Z,59.10
2018-05-31T01:58:54.249Z,59.10
2018-05-31T01:59:26.222Z,59.10
2018-05-31T01:59:57.970Z,59.00
2018-05-31T02:00:29.923Z,59.10
2018-05-31T02:01:02.155Z,59.20
2018-05-31T02:01:34.830Z,59.30
2018-05-31T02:02:06.812Z,59.20
2018-05-31T02:02:38.758Z,59.20
2018-05-31T02:03:10.708Z,59.20
2018-05-31T02:03:42.662Z,59.20
2018-05-31T02:04:14.603Z,59.20
2018-05-31T02:04:46.665Z,59.20
2018-05-31T02:05:18.636Z,59.30
2018-05-31T02:05:50.362Z,59.20
2018-05-31T02:06:22.341Z,59.80
2018-05-31T02:06:54.838Z,59.40
2018-05-31T02:07:26.805Z,59.30
2018-05-31T02:07:58.777Z,59.40
2018-05-31T02:08:30.695Z,59.40
2018-05-31T02:09:02.658Z,59.50
2018-05-31T02:09:34.593Z,59.60
2018-05-31T02:10:06.534Z,59.60
2018-05-31T02:10:38.577Z,59.70
2018-05-31T02:11:10.322Z,59.70
2018-05-31T02:11:42.080Z,59.70
2018-05-31T02:12:13.834Z,59.70
2018-05-31T02:12:45.777Z,59.70
2018-05-31T02:13:17.709Z,59.70
2018-05-31T02:13:49.700Z,59.70
2018-05-31T02:14:21.424Z,59.80
2018-05-31T02:14:53.385Z,59.70
2018-05-31T02:15:25.133Z,59.80
2018-05-31T02:15:57.085Z,59.90
2018-05-31T02:16:28.818Z,59.90
2018-05-31T02:17:00.571Z,59.80
2018-05-31T02:17:32.501Z,59.90
2018-05-31T02:18:04.469Z,59.90
2018-05-31T02:18:36.961Z,59.80
2018-05-31T02:19:09.688Z,59.90
2018-05-31T02:19:41.635Z,59.90
2018-05-31T02:20:13.579Z,59.80
2018-05-31T02:20:45.592Z,59.80
2018-05-31T02:21:17.555Z,59.70
2018-05-31T02:21:50.234Z,59.70
2018-05-31T02:22:21.963Z,59.70
2018-05-31T02:22:53.914Z,59.60
2018-05-31T02:23:25.860Z,59.70
2018-05-31T02:23:57.597Z,59.60
2018-05-31T02:24:29.544Z,59.70
2018-05-31T02:25:02.259Z,59.70
2018-05-31T02:25:34.202Z,59.70
2018-05-31T02:26:06.176Z,59.70
2018-05-31T02:26:38.139Z,59.70
2018-05-31T02:27:09.898Z,59.70
2018-05-31T02:27:42.693Z,59.70
2018-05-31T02:28:14.662Z,59.70
2018-05-31T02:28:46.581Z,59.70
2018-05-31T02:29:18.511Z,59.70
2018-05-31T02:29:51.222Z,59.70
2018-05-31T02:30:23.167Z,59.60
2018-05-31T02:30:55.133Z,59.70
2018-05-31T02:31:27.098Z,59.60
2018-05-31T02:31:59.043Z,59.60
2018-05-31T02:32:30.982Z,60.40
2018-05-31T02:33:02.930Z,59.70
2018-05-31T02:33:34.872Z,59.60
2018-05-31T02:34:06.810Z,59.70
2018-05-31T02:34:38.797Z,59.70
2018-05-31T02:35:10.765Z,59.60
2018-05-31T02:35:42.672Z,59.70
2018-05-31T02:36:14.417Z,59.70
2018-05-31T02:36:46.396Z,59.70
2018-05-31T02:37:18.330Z,59.70
2018-05-31T02:37:50.322Z,59.80
2018-05-31T02:38:22.262Z,59.70
2018-05-31T02:38:54.976Z,59.70
2018-05-31T02:39:26.936Z,59.70
2018-05-31T02:39:58.672Z,59.70
2018-05-31T02:40:30.625Z,59.70
2018-05-31T02:41:02.591Z,59.60
2018-05-31T02:41:34.532Z,59.60
2018-05-31T02:42:06.473Z,59.60
2018-05-31T02:42:38.432Z,59.60
2018-05-31T02:43:10.361Z,59.60
2018-05-31T02:43:42.302Z,59.60
2018-05-31T02:44:14.054Z,59.60
2018-05-31T02:44:45.997Z,59.60
2018-05-31T02:45:17.974Z,59.60
2018-05-31T02:45:49.937Z,59.60
2018-05-31T02:46:21.858Z,59.60
2018-05-31T02:46:53.806Z,59.60
2018-05-31T02:47:25.756Z,59.70
2018-05-31T02:47:57.486Z,59.70
2018-05-31T02:48:29.239Z,59.70
2018-05-31T02:49:01.184Z,59.80
2018-05-31T02:49:33.143Z,59.70
2018-05-31T02:50:05.178Z,59.80
2018-05-31T02:50:37.098Z,59.80
2018-05-31T02:51:09.806Z,59.80
2018-05-31T02:51:41.750Z,59.80
2018-05-31T02:52:13.690Z,59.70
2018-05-31T02:52:45.659Z,59.70
2018-05-31T02:53:17.400Z,59.70
2018-05-31T02:53:49.343Z,59.70
2018-05-31T02:54:21.299Z,59.80
2018-05-31T02:54:53.238Z,59.90
2018-05-31T02:55:24.981Z,59.80
2018-05-31T02:55:56.735Z,59.80
2018-05-31T02:56:28.671Z,59.80
2018-05-31T02:57:00.447Z,59.80
2018-05-31T02:57:32.402Z,59.90
2018-05-31T02:58:04.131Z,59.90
2018-05-31T02:58:36.099Z,59.90
2018-05-31T02:59:09.358Z,59.90
2018-05-31T02:59:41.088Z,59.90
2018-05-31T03:00:13.030Z,59.90
2018-05-31T03:00:44.983Z,60.00
2018-05-31T03:01:16.937Z,60.00
2018-05-31T03:01:48.883Z,60.00
2018-05-31T03:02:20.835Z,60.00
2018-05-31T03:02:52.783Z,60.10
2018-05-31T03:03:24.981Z,60.10
2018-05-31T03:03:56.926Z,60.00
2018-05-31T03:04:28.896Z,60.20
2018-05-31T03:05:01.426Z,60.10
2018-05-31T03:05:33.183Z,60.10
2018-05-31T03:06:04.904Z,60.10
2018-05-31T03:06:36.857Z,60.10
2018-05-31T03:07:08.837Z,60.10
2018-05-31T03:07:40.770Z,60.10
2018-05-31T03:08:14.214Z,60.00
2018-05-31T03:08:46.153Z,60.00
2018-05-31T03:09:18.132Z,60.00
2018-05-31T03:09:50.083Z,60.00
2018-05-31T03:10:22.040Z,60.00
2018-05-31T03:10:53.772Z,60.00
2018-05-31T03:11:25.813Z,60.00
2018-05-31T03:11:57.529Z,60.00
2018-05-31T03:12:29.480Z,60.00
2018-05-31T03:13:01.428Z,59.90
2018-05-31T03:13:33.558Z,59.90
2018-05-31T03:14:06.115Z,59.80
2018-05-31T03:14:38.061Z,59.80
2018-05-31T03:15:10.011Z,59.80
2018-05-31T03:15:41.947Z,59.70
2018-05-31T03:16:13.882Z,59.80
2018-05-31T03:16:45.802Z,59.70
2018-05-31T03:17:17.615Z,59.70
2018-05-31T03:17:50.327Z,59.90
2018-05-31T03:18:22.053Z,59.70
2018-05-31T03:18:54.003Z,59.70
2018-05-31T03:19:25.762Z,59.80
2018-05-31T03:19:57.697Z,59.70
2018-05-31T03:20:29.660Z,59.70
2018-05-31T03:21:01.589Z,59.60
2018-05-31T03:21:33.530Z,59.70
2018-05-31T03:22:05.491Z,59.50
2018-05-31T03:22:37.442Z,59.60
2018-05-31T03:23:09.366Z,59.60
2018-05-31T03:23:42.334Z,59.50
2018-05-31T03:24:14.272Z,59.40
2018-05-31T03:24:46.332Z,59.40
2018-05-31T03:25:19.054Z,59.50
2018-05-31T03:25:50.994Z,59.40
2018-05-31T03:26:22.937Z,60.00
2018-05-31T03:26:54.678Z,59.50
2018-05-31T03:27:26.614Z,59.50
2018-05-31T03:27:58.386Z,59.50
2018-05-31T03:28:30.294Z,59.60
2018-05-31T03:29:03.053Z,59.60
2018-05-31T03:29:34.782Z,59.50
2018-05-31T03:30:06.719Z,59.00
2018-05-31T03:30:38.681Z,59.50
2018-05-31T03:31:10.628Z,59.50
2018-05-31T03:31:42.564Z,59.60
2018-05-31T03:32:14.526Z,59.50
2018-05-31T03:32:46.467Z,59.60
2018-05-31T03:33:18.253Z,59.50
2018-05-31T03:33:50.998Z,59.50
2018-05-31T03:34:22.939Z,59.50
2018-05-31T03:34:54.888Z,60.10
2018-05-31T03:35:26.615Z,59.50
2018-05-31T03:35:58.595Z,59.50
2018-05-31T03:36:30.336Z,59.40
2018-05-31T03:37:03.781Z,59.50
2018-05-31T03:37:35.732Z,59.40
2018-05-31T03:38:07.671Z,59.40
2018-05-31T03:38:39.418Z,59.40
2018-05-31T03:39:11.356Z,59.40
2018-05-31T03:39:43.369Z,59.30
2018-05-31T03:40:15.874Z,59.50
2018-05-31T03:40:47.819Z,59.50
2018-05-31T03:41:19.767Z,59.50
2018-05-31T03:41:51.586Z,59.50
2018-05-31T03:42:24.305Z,59.40
2018-05-31T03:42:56.259Z,59.40
2018-05-31T03:43:28.190Z,59.40
2018-05-31T03:44:00.163Z,59.40
2018-05-31T03:44:32.093Z,59.40
2018-05-31T03:45:04.034Z,60.00
2018-05-31T03:45:35.985Z,59.40
2018-05-31T03:46:07.950Z,59.50
2018-05-31T03:46:39.901Z,59.40
2018-05-31T03:47:11.649Z,59.50
2018-05-31T03:47:43.387Z,59.50
2018-05-31T03:48:15.353Z,59.50
2018-05-31T03:48:47.366Z,59.50
2018-05-31T03:49:20.057Z,59.40
2018-05-31T03:49:51.986Z,59.40
2018-05-31T03:50:23.727Z,59.40
2018-05-31T03:50:55.698Z,59.40
2018-05-31T03:51:27.630Z,59.40
2018-05-31T03:51:59.674Z,59.50
2018-05-31T03:52:31.600Z,59.50
2018-05-31T03:53:03.364Z,59.50
2018-05-31T03:53:35.311Z,59.60
2018-05-31T03:54:07.246Z,59.50
2018-05-31T03:54:39.283Z,59.40
2018-05-31T03:55:11.997Z,59.40
2018-05-31T03:55:43.946Z,59.40
2018-05-31T03:56:15.693Z,59.50
2018-05-31T03:56:47.636Z,59.50
2018-05-31T03:57:19.603Z,59.50
2018-05-31T03:57:51.347Z,59.40
2018-05-31T03:58:23.294Z,59.40
2018-05-31T03:58:55.235Z,59.40
2018-05-31T03:59:27.376Z,59.40
2018-05-31T03:59:59.111Z,59.40
2018-05-31T04:00:31.048Z,59.40
2018-05-31T04:01:03.006Z,59.40
2018-05-31T04:01:35.008Z,59.40
2018-05-31T04:02:06.881Z,59.40
2018-05-31T04:02:39.600Z,59.50
2018-05-31T04:03:11.525Z,59.40
2018-05-31T04:03:43.470Z,59.40
2018-05-31T04:04:15.529Z,59.50
2018-05-31T04:04:48.216Z,59.60
2018-05-31T04:05:20.155Z,59.40
2018-05-31T04:05:52.113Z,59.50
2018-05-31T04:06:23.838Z,59.60
2018-05-31T04:06:55.591Z,59.50
2018-05-31T04:07:27.326Z,59.50
2018-05-31T04:07:59.095Z,59.60
2018-05-31T04:08:31.044Z,59.60
2018-05-31T04:09:02.981Z,59.60
2018-05-31T04:09:35.175Z,59.60
2018-05-31T04:10:07.114Z,59.50
2018-05-31T04:10:39.068Z,59.50
2018-05-31T04:11:11.009Z,59.50
2018-05-31T04:11:42.974Z,59.60
2018-05-31T04:12:14.977Z,59.60
2018-05-31T04:12:46.757Z,59.40
2018-05-31T04:13:19.466Z,59.70
2018-05-31T04:13:51.422Z,59.60
2018-05-31T04:14:24.144Z,59.70
2018-05-31T04:14:56.119Z,59.60
2018-05-31T04:15:28.841Z,59.70
2018-05-31T04:16:00.598Z,59.60
2018-05-31T04:16:33.110Z,59.70
2018-05-31T04:17:05.058Z,59.70
2018-05-31T04:17:36.804Z,59.60
2018-05-31T04:18:08.749Z,59.60
2018-05-31T04:18:40.701Z,59.60
2018-05-31T04:19:12.637Z,59.60
2018-05-31T04:19:45.354Z,59.60
2018-05-31T04:20:17.303Z,59.60
2018-05-31T04:20:49.061Z,59.60
2018-05-31T04:21:21.010Z,59.60
2018-05-31T04:21:52.938Z,59.60
2018-05-31T04:22:24.894Z,59.60
2018-05-31T04:22:56.855Z,59.60
2018-05-31T04:23:28.601Z,59.60
2018-05-31T04:24:00.572Z,59.60
2018-05-31T04:24:32.491Z,59.60
2018-05-31T04:25:04.296Z,59.60
2018-05-31T04:25:36.981Z,59.60
2018-05-31T04:26:08.919Z,59.60
2018-05-31T04:26:40.909Z,59.60
2018-05-31T04:27:12.845Z,59.60
2018-05-31T04:27:44.809Z,59.60
2018-05-31T04:28:16.546Z,59.70
2018-05-31T04:28:48.491Z,59.70
2018-05-31T04:29:20.478Z,59.60
2018-05-31T04:29:53.008Z,59.70
2018-05-31T04:30:24.979Z,59.70
2018-05-31T04:30:56.900Z,59.70
2018-05-31T04:31:28.853Z,59.70
2018-05-31T04:32:00.828Z,59.70
2018-05-31T04:32:32.730Z,59.70
2018-05-31T04:33:04.654Z,59.70
2018-05-31T04:33:36.652Z,59.70
2018-05-31T04:34:08.585Z,59.70
2018-05-31T04:34:40.562Z,59.70
2018-05-31T04:35:12.511Z,59.70
2018-05-31T04:35:44.468Z,59.70
2018-05-31T04:36:16.420Z,59.70
2018-05-31T04:36:48.376Z,59.80
2018-05-31T04:37:21.866Z,59.90
2018-05-31T04:37:54.388Z,60.30
2018-05-31T04:38:26.318Z,60.10
2018-05-31T04:38:58.262Z,59.90
2018-05-31T04:39:30.963Z,59.80
2018-05-31T04:40:02.906Z,59.80
2018-05-31T04:40:34.867Z,59.80
2018-05-31T04:41:06.840Z,59.60
2018-05-31T04:41:38.766Z,59.60
2018-05-31T04:42:10.715Z,59.60
2018-05-31T04:42:42.666Z,59.60
2018-05-31T04:43:14.615Z,59.70
2018-05-31T04:43:46.561Z,59.70
2018-05-31T04:44:18.503Z,59.70
2018-05-31T04:44:50.447Z,59.70
2018-05-31T04:45:22.404Z,59.60
2018-05-31T04:45:54.347Z,59.70
2018-05-31T04:46:26.289Z,59.70
2018-05-31T04:46:58.250Z,59.60
2018-05-31T04:47:30.191Z,59.70
2018-05-31T04:48:02.142Z,59.70
2018-05-31T04:48:34.154Z,59.70
2018-05-31T04:49:06.660Z,59.70
2018-05-31T04:49:38.597Z,59.70
2018-05-31T04:50:10.518Z,59.70
2018-05-31T04:50:42.461Z,59.60
2018-05-31T04:51:14.410Z,59.50
2018-05-31T04:51:46.143Z,59.70
2018-05-31T04:52:18.658Z,59.60
2018-05-31T04:52:50.591Z,59.60
2018-05-31T04:53:22.585Z,59.70
2018-05-31T04:53:56.042Z,59.70
2018-05-31T04:54:27.999Z,59.70
2018-05-31T04:54:59.748Z,59.60
2018-05-31T04:55:31.705Z,59.60
2018-05-31T04:56:03.645Z,59.60
2018-05-31T04:56:35.620Z,59.50
2018-05-31T04:57:07.552Z,59.50
2018-05-31T04:57:39.506Z,59.90
2018-05-31T04:58:12.223Z,59.50
2018-05-31T04:58:44.919Z,59.50
2018-05-31T04:59:16.863Z,59.50
2018-05-31T04:59:48.847Z,59.50
2018-05-31T05:00:21.615Z,59.50
2018-05-31T05:00:53.527Z,59.50
2018-05-31T05:01:25.478Z,59.50
2018-05-31T05:01:57.445Z,59.50
2018-05-31T05:02:29.386Z,59.40
2018-05-31T05:03:01.398Z,59.40
2018-05-31T05:03:33.315Z,59.30
2018-05-31T05:04:05.282Z,59.70
2018-05-31T05:04:37.798Z,59.40
2018-05-31T05:05:09.747Z,59.40
2018-05-31T05:05:41.674Z,59.30
2018-05-31T05:06:13.650Z,59.30
2018-05-31T05:06:45.621Z,59.40
2018-05-31T05:07:17.578Z,59.30
2018-05-31T05:07:50.311Z,59.30
2018-05-31T05:08:22.265Z,59.30
2018-05-31T05:08:54.219Z,59.30
2018-05-31T05:09:26.175Z,59.30
2018-05-31T05:09:58.118Z,59.30
2018-05-31T05:10:30.061Z,59.30
2018-05-31T05:11:02.009Z,59.30
2018-05-31T05:11:33.962Z,59.30
2018-05-31T05:12:05.714Z,59.20
2018-05-31T05:12:37.652Z,59.20
2018-05-31T05:13:09.619Z,59.20
2018-05-31T05:13:41.557Z,59.20
2018-05-31T05:14:13.514Z,59.20
2018-05-31T05:14:45.450Z,59.20
2018-05-31T05:15:17.387Z,59.30
2018-05-31T05:15:49.365Z,59.30
2018-05-31T05:16:21.347Z,59.20
2018-05-31T05:16:53.300Z,59.40
2018-05-31T05:17:26.019Z,59.40
2018-05-31T05:17:57.952Z,59.30
2018-05-31T05:18:29.887Z,59.30
2018-05-31T05:19:01.653Z,59.30
2018-05-31T05:19:33.593Z,59.20
2018-05-31T05:20:05.528Z,59.30
2018-05-31T05:20:37.534Z,59.30
2018-05-31T05:21:10.047Z,59.40
2018-05-31T05:21:41.987Z,59.20
2018-05-31T05:22:13.916Z,59.30
2018-05-31T05:22:45.865Z,59.30
2018-05-31T05:23:17.810Z,59.30
2018-05-31T05:23:50.503Z,59.30
2018-05-31T05:24:22.465Z,59.20
2018-05-31T05:24:54.415Z,59.20
2018-05-31T05:25:26.373Z,59.30
2018-05-31T05:25:58.318Z,59.20
2018-05-31T05:26:30.544Z,59.20
2018-05-31T05:27:03.219Z,59.30
2018-05-31T05:27:35.164Z,59.20
2018-05-31T05:28:07.221Z,59.20
2018-05-31T05:28:39.164Z,59.20
2018-05-31T05:29:11.103Z,59.20
2018-05-31T05:29:43.050Z,59.10
2018-05-31T05:30:15.136Z,59.20
2018-05-31T05:30:46.891Z,59.20
2018-05-31T05:31:18.621Z,59.20
2018-05-31T05:31:50.364Z,59.20
2018-05-31T05:32:22.308Z,59.20
2018-05-31T05:32:54.254Z,59.20
2018-05-31T05:33:26.202Z,59.20
2018-05-31T05:33:58.149Z,59.20
2018-05-31T05:34:30.114Z,59.20
2018-05-31T05:35:01.859Z,59.20
2018-05-31T05:35:33.893Z,59.20
2018-05-31T05:36:06.567Z,59.20
2018-05-31T05:36:38.683Z,59.10
2018-05-31T05:37:11.382Z,59.20
2018-05-31T05:37:43.363Z,59.10
2018-05-31T05:38:15.298Z,59.20
2018-05-31T05:38:47.263Z,59.20
2018-05-31T05:39:19.221Z,59.10
2018-05-31T05:39:51.170Z,59.10
2018-05-31T05:40:22.931Z,59.10
2018-05-31T05:40:54.650Z,59.20
2018-05-31T05:41:26.587Z,59.10
2018-05-31T05:41:58.549Z,59.10
2018-05-31T05:42:30.494Z,59.10
2018-05-31T05:43:02.438Z,59.10
2018-05-31T05:43:34.412Z,59.10
2018-05-31T05:44:06.334Z,59.10
2018-05-31T05:44:38.291Z,59.00
2018-05-31T05:45:10.052Z,59.10
2018-05-31T05:45:41.813Z,59.00
2018-05-31T05:46:14.351Z,59.00
2018-05-31T05:46:46.982Z,59.00
2018-05-31T05:47:18.925Z,59.00
2018-05-31T05:47:50.874Z,59.00
2018-05-31T05:48:22.619Z,59.00
2018-05-31T05:48:54.576Z,59.00
2018-05-31T05:49:26.370Z,59.70
2018-05-31T05:49:59.096Z,59.00
2018-05-31T05:50:31.029Z,59.00
2018-05-31T05:51:02.979Z,59.00
2018-05-31T05:51:34.932Z,59.10
2018-05-31T05:52:06.879Z,59.00
2018-05-31T05:52:38.807Z,59.00
2018-05-31T05:53:10.766Z,59.00
2018-05-31T05:53:42.520Z,59.00
2018-05-31T05:54:14.504Z,59.00
2018-05-31T05:54:46.434Z,59.00
2018-05-31T05:55:18.154Z,59.00
2018-05-31T05:55:49.925Z,59.00
2018-05-31T05:56:21.907Z,59.00
2018-05-31T05:56:53.835Z,59.00
2018-05-31T05:57:25.774Z,59.00
2018-05-31T05:57:57.731Z,59.00
2018-05-31T05:58:29.465Z,58.90
2018-05-31T05:59:01.425Z,58.90
2018-05-31T05:59:33.401Z,58.90
2018-05-31T06:00:05.364Z,58.90
2018-05-31T06:00:38.090Z,58.90
2018-05-31T06:01:09.839Z,59.50
2018-05-31T06:01:41.866Z,58.90
2018-05-31T06:02:13.817Z,58.90
2018-05-31T06:02:45.582Z,58.80
2018-05-31T06:03:17.534Z,58.80
2018-05-31T06:03:49.481Z,58.90
2018-05-31T06:04:21.444Z,58.90
2018-05-31T06:04:53.352Z,58.90
2018-05-31T06:05:25.290Z,58.90
2018-05-31T06:05:58.073Z,59.00
2018-05-31T06:06:30.048Z,58.90
2018-05-31T06:07:02.240Z,58.90
2018-05-31T06:07:34.741Z,59.00
2018-05-31T06:08:06.686Z,58.90
2018-05-31T06:08:38.627Z,59.00
2018-05-31T06:09:10.603Z,59.00
2018-05-31T06:09:42.344Z,59.00
2018-05-31T06:10:14.397Z,58.90
2018-05-31T06:10:46.276Z,59.00
2018-05-31T06:11:18.219Z,59.00
2018-05-31T06:11:49.963Z,59.50
2018-05-31T06:12:22.021Z,59.00
2018-05-31T06:12:53.955Z,59.00
2018-05-31T06:13:25.894Z,59.00
2018-05-31T06:13:57.847Z,59.00
2018-05-31T06:14:29.808Z,59.00
2018-05-31T06:15:01.542Z,59.00
2018-05-31T06:15:33.539Z,59.00
2018-05-31T06:16:05.460Z,58.80
2018-05-31T06:16:37.227Z,58.80
2018-05-31T06:17:09.944Z,58.80
2018-05-31T06:17:42.158Z,58.80
2018-05-31T06:18:14.895Z,58.70
2018-05-31T06:18:46.830Z,58.70
2018-05-31T06:19:18.773Z,58.70
2018-05-31T06:19:50.778Z,58.60
2018-05-31T06:20:22.694Z,58.60
2018-05-31T06:20:54.426Z,58.60
2018-05-31T06:21:26.557Z,58.60
2018-05-31T06:21:58.500Z,58.60
2018-05-31T06:22:30.457Z,58.50
2018-05-31T06:23:02.542Z,58.50
2018-05-31T06:23:36.079Z,58.50
2018-05-31T06:24:08.763Z,58.50
2018-05-31T06:24:40.716Z,58.50
2018-05-31T06:25:12.661Z,58.50
2018-05-31T06:25:44.622Z,58.50
2018-05-31T06:26:16.587Z,58.50
2018-05-31T06:26:48.511Z,58.50
2018-05-31T06:27:20.540Z,58.60
2018-05-31T06:27:52.282Z,58.50
2018-05-31T06:28:24.336Z,58.50
2018-05-31T06:28:56.827Z,58.50
2018-05-31T06:29:28.770Z,58.50
2018-05-31T06:30:00.726Z,58.50
2018-05-31T06:30:32.669Z,58.50
2018-05-31T06:31:04.607Z,58.40
2018-05-31T06:31:36.543Z,58.40
2018-05-31T06:32:08.306Z,58.40
2018-05-31T06:32:40.300Z,58.40
2018-05-31T06:33:13.151Z,58.40
2018-05-31T06:33:44.891Z,58.30
2018-05-31T06:34:16.831Z,58.40
2018-05-31T06:34:48.589Z,58.40
2018-05-31T06:35:20.316Z,58.40
2018-05-31T06:35:52.053Z,58.40
2018-05-31T06:36:23.881Z,58.40
2018-05-31T06:36:56.362Z,58.40
2018-05-31T06:37:28.203Z,58.30
2018-05-31T06:38:00.070Z,58.40
2018-05-31T06:38:31.830Z,58.40
2018-05-31T06:39:04.360Z,58.60
2018-05-31T06:39:36.090Z,58.50
2018-05-31T06:40:07.849Z,58.60
2018-05-31T06:40:39.596Z,58.60
2018-05-31T06:41:11.339Z,58.60
2018-05-31T06:41:43.109Z,58.60
2018-05-31T06:42:14.862Z,58.70
2018-05-31T06:42:46.616Z,58.70
2018-05-31T06:43:19.384Z,58.90
2018-05-31T06:43:51.890Z,58.80
2018-05-31T06:44:23.637Z,58.80
2018-05-31T06:44:55.478Z,59.00
2018-05-31T06:45:27.202Z,59.00
2018-05-31T06:45:59.702Z,59.00
2018-05-31T06:46:31.446Z,59.00
2018-05-31T06:47:03.205Z,59.00
2018-05-31T06:47:34.938Z,59.10
2018-05-31T06:48:06.688Z,59.10
2018-05-31T06:48:38.429Z,59.00
2018-05-31T06:49:10.176Z,59.00
2018-05-31T06:49:41.918Z,59.00
2018-05-31T06:50:13.664Z,59.00
2018-05-31T06:50:45.414Z,59.00
2018-05-31T06:51:17.154Z,58.90
2018-05-31T06:51:48.902Z,58.90
2018-05-31T06:52:20.675Z,58.90